Time;durP1;ratioP1;P1;durP2;ratioP2;P2;SDS_P1;SDS_P2;PMS_P1;PMS_P2;Temp;Humidity;BMP_temperature;BMP_pressure;BME280_temperature;BME280_humidity;BME280_pressure;Samples;Min_cycle;Max_cycle;Signal;HPM_P1;HPM_P2
2023/03/08 00:02:07;;;;;;;;;;;2.10;86.90;;;;;;5114448;27;19908;-66
2023/03/08 00:04:33;;;;;;;;;;;2.10;87.00;;;;;;5093859;28;19912;-65
2023/03/08 00:06:59;;;;;;;;;;;2.10;86.90;;;;;;5108161;27;19953;-65
2023/03/08 00:09:24;;;;;;;;;;;2.10;86.80;;;;;;5115968;27;19939;-66
2023/03/08 00:11:50;;;;;;;;;;;2.10;86.80;;;;;;5120792;27;19908;-66
2023/03/08 00:14:16;;;;;;;;;;;2.10;86.90;;;;;;5111753;27;19911;-66
2023/03/08 00:16:42;;;;;;;;;;;2.10;86.90;;;;;;5106082;27;19914;-66
2023/03/08 00:19:07;;;;;;;;;;;2.10;86.80;;;;;;5110220;27;19920;-66
2023/03/08 00:21:33;;;;;;;;;;;2.10;86.90;;;;;;5120010;27;19911;-65
2023/03/08 00:23:58;;;;;;;;;;;2.20;86.80;;;;;;5114173;27;19912;-66
2023/03/08 00:26:23;;;;;;;;;;;2.10;86.80;;;;;;5103552;28;19935;-67
2023/03/08 00:28:49;;;;;;;;;;;2.10;86.70;;;;;;5103190;27;19912;-66
2023/03/08 00:31:15;;;;;;;;;;;2.00;86.60;;;;;;5096735;28;19922;-66
2023/03/08 00:33:40;;;;;;;;;;;2.00;86.60;;;;;;5095338;28;20568;-66
2023/03/08 00:36:08;;;;;;;;;;;2.00;86.50;;;;;;5103290;28;19908;-66
2023/03/08 00:38:35;;;;;;;;;;;2.00;86.50;;;;;;5109792;28;19908;-66
2023/03/08 00:41:01;;;;;;;;;;;2.00;86.40;;;;;;5098099;28;19952;-66
2023/03/08 00:43:27;;;;;;;;;;;2.00;86.40;;;;;;5099671;28;19908;-66
2023/03/08 00:45:52;;;;;;;;;;;2.00;86.40;;;;;;5093309;28;19908;-66
2023/03/08 00:48:18;;;;;;;;;;;2.00;86.40;;;;;;5095607;28;20374;-66
2023/03/08 00:50:44;;;;;;;;;;;2.00;86.50;;;;;;5096869;28;19908;-66
2023/03/08 00:53:09;;;;;;;;;;;2.00;87.10;;;;;;5105410;27;19916;-66
2023/03/08 00:55:35;;;;;;;;;;;2.00;86.60;;;;;;5117650;27;20350;-66
2023/03/08 00:58:01;;;;;;;;;;;2.00;86.60;;;;;;5110827;27;19953;-66
2023/03/08 01:00:26;;;;;;;;;;;1.90;86.50;;;;;;5111033;28;19950;-66
2023/03/08 01:02:52;;;;;;;;;;;1.90;86.60;;;;;;5109552;27;19914;-66
2023/03/08 01:05:17;;;;;;;;;;;2.00;86.60;;;;;;5116514;27;19949;-66
2023/03/08 01:07:43;;;;;;;;;;;2.00;86.50;;;;;;5109780;27;19999;-65
2023/03/08 01:10:09;;;;;;;;;;;2.10;86.40;;;;;;5111331;28;20437;-65
2023/03/08 01:12:35;;;;;;;;;;;2.10;86.30;;;;;;5098164;27;19915;-66
2023/03/08 01:15:00;;;;;;;;;;;2.10;86.40;;;;;;5115558;27;20308;-66
2023/03/08 01:17:26;;;;;;;;;;;2.10;86.30;;;;;;5092508;28;19908;-65
2023/03/08 01:19:52;;;;;;;;;;;2.10;86.40;;;;;;5094768;28;20433;-66
2023/03/08 01:22:17;;;;;;;;;;;2.10;86.50;;;;;;5105487;27;19908;-65
2023/03/08 01:24:44;;;;;;;;;;;2.10;86.50;;;;;;5126765;27;19960;-65
2023/03/08 01:27:09;;;;;;;;;;;2.10;86.50;;;;;;5124240;27;19954;-65
2023/03/08 01:29:35;;;;;;;;;;;2.10;86.40;;;;;;5119609;27;20004;-65
2023/03/08 01:32:00;;;;;;;;;;;2.10;86.40;;;;;;5112921;27;19939;-66
2023/03/08 01:34:26;;;;;;;;;;;2.10;86.40;;;;;;5093730;28;19912;-66
2023/03/08 01:36:51;;;;;;;;;;;2.20;86.40;;;;;;5108309;28;19916;-65
2023/03/08 01:39:17;;;;;;;;;;;2.20;86.40;;;;;;5109166;27;19915;-66
2023/03/08 01:41:42;;;;;;;;;;;2.20;86.50;;;;;;5111135;27;20344;-66
2023/03/08 01:44:13;;;;;;;;;;;2.20;86.60;;;;;;5094701;28;19908;-65
2023/03/08 01:46:38;;;;;;;;;;;2.20;86.60;;;;;;5097398;28;19908;-65
2023/03/08 01:49:33;;;;;;;;;;;2.20;86.70;;;;;;5099587;28;20333;-65
2023/03/08 01:52:05;;;;;;;;;;;2.10;86.60;;;;;;5090961;28;19916;-64
2023/03/08 01:54:37;;;;;;;;;;;2.10;86.60;;;;;;5107173;28;20378;-66
2023/03/08 01:57:04;;;;;;;;;;;2.20;86.70;;;;;;5097279;28;20411;-66
2023/03/08 01:59:31;;;;;;;;;;;2.10;86.50;;;;;;5110138;27;19912;-67
2023/03/08 02:01:57;;;;;;;;;;;2.10;86.70;;;;;;5109154;28;19946;-66
2023/03/08 02:04:23;;;;;;;;;;;2.10;86.80;;;;;;5095847;28;19908;-66
2023/03/08 02:06:49;;;;;;;;;;;2.10;86.80;;;;;;5096064;28;19908;-65
2023/03/08 02:09:14;;;;;;;;;;;2.10;86.70;;;;;;5122744;27;20339;-66
2023/03/08 02:11:41;;;;;;;;;;;2.10;86.80;;;;;;5116422;27;19915;-66
2023/03/08 02:14:06;;;;;;;;;;;2.10;86.90;;;;;;5096092;28;19912;-66
2023/03/08 02:16:32;;;;;;;;;;;2.10;86.90;;;;;;5101564;27;19908;-66
2023/03/08 02:18:59;;;;;;;;;;;2.10;86.90;;;;;;5114295;27;19908;-65
2023/03/08 02:21:25;;;;;;;;;;;2.10;86.90;;;;;;5110577;28;20381;-66
2023/03/08 02:23:50;;;;;;;;;;;2.10;87.00;;;;;;5100606;28;20008;-66
2023/03/08 02:26:16;;;;;;;;;;;2.10;87.00;;;;;;5106042;27;20633;-65
2023/03/08 02:28:42;;;;;;;;;;;2.10;87.10;;;;;;5115311;27;19920;-65
2023/03/08 02:31:08;;;;;;;;;;;2.10;87.10;;;;;;5102362;28;19934;-66
2023/03/08 02:33:33;;;;;;;;;;;2.10;87.00;;;;;;5102159;28;20336;-66
2023/03/08 02:36:03;;;;;;;;;;;2.20;87.10;;;;;;5105962;28;19912;-66
2023/03/08 02:38:29;;;;;;;;;;;2.10;87.10;;;;;;5118500;27;19939;-65
2023/03/08 02:40:55;;;;;;;;;;;2.10;87.10;;;;;;5109977;27;19934;-66
2023/03/08 02:43:21;;;;;;;;;;;2.20;87.20;;;;;;5113823;27;19915;-64
2023/03/08 02:45:46;;;;;;;;;;;2.10;87.10;;;;;;5110464;27;20015;-65
2023/03/08 02:48:13;;;;;;;;;;;2.10;87.30;;;;;;5111828;27;19915;-66
2023/03/08 02:50:38;;;;;;;;;;;2.10;87.50;;;;;;5106951;27;19908;-65
2023/03/08 02:53:04;;;;;;;;;;;2.10;87.40;;;;;;5106766;27;19912;-65
2023/03/08 02:55:30;;;;;;;;;;;2.10;87.40;;;;;;5103971;27;19911;-66
2023/03/08 02:57:55;;;;;;;;;;;2.10;87.40;;;;;;5117314;27;19908;-65
2023/03/08 03:00:21;;;;;;;;;;;2.00;87.70;;;;;;5103578;27;19907;-66
2023/03/08 03:02:46;;;;;;;;;;;2.00;87.90;;;;;;5112921;27;19908;-65
2023/03/08 03:05:12;;;;;;;;;;;1.90;88.00;;;;;;5105756;27;20385;-66
2023/03/08 03:07:38;;;;;;;;;;;1.90;88.10;;;;;;5113042;27;20049;-65
2023/03/08 03:10:05;;;;;;;;;;;1.90;88.20;;;;;;5104459;27;19912;-67
2023/03/08 03:12:30;;;;;;;;;;;1.90;88.30;;;;;;5114845;27;19995;-65
2023/03/08 03:14:56;;;;;;;;;;;2.00;88.50;;;;;;5099448;27;19926;-64
2023/03/08 03:17:21;;;;;;;;;;;1.90;88.50;;;;;;5096996;28;19962;-65
2023/03/08 03:19:47;;;;;;;;;;;1.90;88.70;;;;;;5107618;27;20432;-65
2023/03/08 03:22:13;;;;;;;;;;;2.00;88.70;;;;;;5102519;27;20358;-66
2023/03/08 03:24:38;;;;;;;;;;;2.00;88.70;;;;;;5095643;28;19912;-65
2023/03/08 03:27:04;;;;;;;;;;;2.10;88.60;;;;;;5100042;27;19987;-64
2023/03/08 03:29:29;;;;;;;;;;;2.20;88.50;;;;;;5104830;27;20030;-63
2023/03/08 03:31:55;;;;;;;;;;;2.20;88.50;;;;;;5108415;27;19907;-66
2023/03/08 03:34:20;;;;;;;;;;;2.20;88.30;;;;;;5106659;27;19912;-65
2023/03/08 03:36:46;;;;;;;;;;;2.30;88.30;;;;;;5099279;28;19908;-66
2023/03/08 03:39:11;;;;;;;;;;;2.30;88.20;;;;;;5104000;27;19912;-65
2023/03/08 03:41:37;;;;;;;;;;;2.30;88.30;;;;;;5113327;27;20735;-65
2023/03/08 03:44:02;;;;;;;;;;;2.40;88.20;;;;;;5104979;28;19908;-66
2023/03/08 03:46:28;;;;;;;;;;;2.40;88.10;;;;;;5094073;28;19914;-67
2023/03/08 03:48:53;;;;;;;;;;;2.30;88.10;;;;;;5096477;28;19915;-66
2023/03/08 03:51:20;;;;;;;;;;;2.30;88.10;;;;;;5117426;27;19914;-65
2023/03/08 03:53:46;;;;;;;;;;;2.40;88.20;;;;;;5107865;28;19911;-65
2023/03/08 03:56:22;;;;;;;;;;;2.40;88.20;;;;;;5110762;28;19998;-66
2023/03/08 03:58:48;;;;;;;;;;;2.40;88.10;;;;;;5116894;27;19941;-66
2023/03/08 04:01:19;;;;;;;;;;;2.40;88.00;;;;;;5119512;27;20372;-66
2023/03/08 04:03:45;;;;;;;;;;;2.50;88.10;;;;;;5096893;28;19908;-66
2023/03/08 04:06:15;;;;;;;;;;;2.60;88.00;;;;;;5110733;28;19907;-66
2023/03/08 04:08:41;;;;;;;;;;;2.60;87.90;;;;;;5112273;27;19907;-66
2023/03/08 04:11:08;;;;;;;;;;;2.60;87.80;;;;;;5119267;27;19959;-66
2023/03/08 04:13:33;;;;;;;;;;;2.60;87.70;;;;;;5096902;27;19951;-66
2023/03/08 04:15:59;;;;;;;;;;;2.50;87.50;;;;;;5108883;28;19943;-67
2023/03/08 04:18:24;;;;;;;;;;;2.50;87.90;;;;;;5099675;27;19931;-66
2023/03/08 04:20:50;;;;;;;;;;;2.50;88.10;;;;;;5111036;27;20034;-67
2023/03/08 04:23:15;;;;;;;;;;;2.50;88.10;;;;;;5101784;27;19915;-69
2023/03/08 04:25:41;;;;;;;;;;;2.50;88.10;;;;;;5092491;28;19908;-64
2023/03/08 04:28:06;;;;;;;;;;;2.40;88.00;;;;;;5092180;27;19915;-64
2023/03/08 04:30:31;;;;;;;;;;;2.40;88.30;;;;;;5102142;27;19907;-64
2023/03/08 04:32:57;;;;;;;;;;;2.40;88.30;;;;;;5112609;27;20010;-63
2023/03/08 04:35:23;;;;;;;;;;;2.40;88.30;;;;;;5097434;28;19915;-65
2023/03/08 04:37:48;;;;;;;;;;;2.40;88.40;;;;;;5098204;28;19949;-64
2023/03/08 04:40:14;;;;;;;;;;;2.40;88.50;;;;;;5101377;27;20412;-65
2023/03/08 04:42:42;;;;;;;;;;;2.40;88.50;;;;;;5122008;27;19911;-64
2023/03/08 04:45:08;;;;;;;;;;;2.40;88.40;;;;;;5097382;28;19908;-63
2023/03/08 04:47:33;;;;;;;;;;;2.40;88.40;;;;;;5098764;28;19953;-64
2023/03/08 04:49:59;;;;;;;;;;;2.40;88.70;;;;;;5111738;27;19908;-65
2023/03/08 04:52:24;;;;;;;;;;;2.40;88.70;;;;;;5122318;27;19911;-63
2023/03/08 04:54:50;;;;;;;;;;;2.30;88.80;;;;;;5108582;28;20011;-64
2023/03/08 04:57:15;;;;;;;;;;;2.40;88.90;;;;;;5122270;27;20354;-66
2023/03/08 04:59:42;;;;;;;;;;;2.40;89.30;;;;;;5105895;27;19908;-66
2023/03/08 05:02:08;;;;;;;;;;;2.40;88.70;;;;;;5110971;27;19907;-65
2023/03/08 05:04:33;;;;;;;;;;;2.40;88.60;;;;;;5109010;27;20539;-65
2023/03/08 05:06:59;;;;;;;;;;;2.40;88.60;;;;;;5104096;28;20391;-65
2023/03/08 05:09:24;;;;;;;;;;;2.40;88.60;;;;;;5110938;27;19915;-65
2023/03/08 05:11:50;;;;;;;;;;;2.30;88.80;;;;;;5091959;28;19912;-65
2023/03/08 05:14:15;;;;;;;;;;;2.30;88.90;;;;;;5111755;27;19937;-65
2023/03/08 05:16:41;;;;;;;;;;;2.30;89.00;;;;;;5117798;27;19946;-65
2023/03/08 05:19:06;;;;;;;;;;;2.20;88.90;;;;;;5112023;27;19922;-65
2023/03/08 05:21:32;;;;;;;;;;;2.20;89.10;;;;;;5115087;27;20274;-66
2023/03/08 05:23:58;;;;;;;;;;;2.20;89.30;;;;;;5118347;27;19907;-64
2023/03/08 05:26:24;;;;;;;;;;;2.30;89.20;;;;;;5110774;27;19908;-66
2023/03/08 05:28:49;;;;;;;;;;;2.30;89.30;;;;;;5101386;27;20026;-65
2023/03/08 05:31:16;;;;;;;;;;;2.30;89.20;;;;;;5124150;27;19907;-65
2023/03/08 05:33:45;;;;;;;;;;;2.20;89.10;;;;;;5115085;27;20001;-65
2023/03/08 05:36:11;;;;;;;;;;;2.30;89.30;;;;;;5108683;27;19918;-65
2023/03/08 05:38:36;;;;;;;;;;;2.30;89.30;;;;;;5109290;27;20409;-66
2023/03/08 05:41:03;;;;;;;;;;;2.30;89.30;;;;;;5110700;27;19950;-62
2023/03/08 05:43:28;;;;;;;;;;;2.30;89.20;;;;;;5103085;28;19951;-64
2023/03/08 05:45:55;;;;;;;;;;;2.30;89.20;;;;;;5094530;28;20394;-64
2023/03/08 05:48:20;;;;;;;;;;;2.30;89.10;;;;;;5091915;28;19998;-63
2023/03/08 05:50:46;;;;;;;;;;;2.40;89.10;;;;;;5112587;28;19995;-64
2023/03/08 05:53:11;;;;;;;;;;;2.30;88.90;;;;;;5099770;28;19957;-66
2023/03/08 05:55:37;;;;;;;;;;;2.30;89.00;;;;;;5099693;28;19907;-64
2023/03/08 05:58:02;;;;;;;;;;;2.30;89.10;;;;;;5094077;28;19908;-63
2023/03/08 06:00:28;;;;;;;;;;;2.20;89.30;;;;;;5113250;28;19998;-66
2023/03/08 06:02:53;;;;;;;;;;;2.20;89.30;;;;;;5116079;28;19992;-66
2023/03/08 06:05:19;;;;;;;;;;;2.30;89.40;;;;;;5121601;28;19998;-65
2023/03/08 06:07:44;;;;;;;;;;;2.20;89.20;;;;;;5106176;28;19989;-66
2023/03/08 06:10:10;;;;;;;;;;;2.20;89.20;;;;;;5117710;28;19911;-65
2023/03/08 06:12:35;;;;;;;;;;;2.20;89.30;;;;;;5109342;28;19908;-65
2023/03/08 06:15:01;;;;;;;;;;;2.10;89.40;;;;;;5108739;28;19918;-64
2023/03/08 06:17:26;;;;;;;;;;;2.10;89.40;;;;;;5122891;27;19907;-66
2023/03/08 06:19:52;;;;;;;;;;;1.90;89.70;;;;;;5103523;28;19920;-64
2023/03/08 06:22:17;;;;;;;;;;;1.80;90.00;;;;;;5103028;28;19912;-65
2023/03/08 06:24:43;;;;;;;;;;;1.80;90.10;;;;;;5107220;28;19956;-66
2023/03/08 06:27:08;;;;;;;;;;;1.80;90.20;;;;;;5108969;27;19915;-65
2023/03/08 06:29:34;;;;;;;;;;;1.80;90.20;;;;;;5111143;28;20666;-65
2023/03/08 06:31:59;;;;;;;;;;;1.70;90.20;;;;;;5113555;28;19915;-66
2023/03/08 06:34:24;;;;;;;;;;;1.70;90.30;;;;;;5110511;28;20011;-66
2023/03/08 06:36:50;;;;;;;;;;;1.70;90.50;;;;;;5112687;28;19916;-65
2023/03/08 06:39:16;;;;;;;;;;;1.70;90.50;;;;;;5108596;28;20421;-65
2023/03/08 06:41:42;;;;;;;;;;;1.70;90.50;;;;;;5107629;28;19958;-66
2023/03/08 06:44:07;;;;;;;;;;;1.70;90.50;;;;;;5101903;28;19938;-66
2023/03/08 06:46:33;;;;;;;;;;;1.70;90.50;;;;;;5101701;28;19915;-66
2023/03/08 06:48:58;;;;;;;;;;;1.80;90.50;;;;;;5098382;28;19908;-66
2023/03/08 06:51:24;;;;;;;;;;;1.70;90.50;;;;;;5096818;28;20432;-67
2023/03/08 06:53:49;;;;;;;;;;;1.60;90.60;;;;;;5090450;28;19915;-66
2023/03/08 06:56:15;;;;;;;;;;;1.70;90.70;;;;;;5093200;28;19908;-67
2023/03/08 06:58:41;;;;;;;;;;;1.70;90.70;;;;;;5099376;27;19922;-65
2023/03/08 07:01:08;;;;;;;;;;;1.60;90.70;;;;;;5107610;27;19915;-67
2023/03/08 07:03:34;;;;;;;;;;;1.60;90.80;;;;;;5104195;27;19908;-65
2023/03/08 07:06:00;;;;;;;;;;;1.60;90.80;;;;;;5104148;27;20348;-67
2023/03/08 07:08:26;;;;;;;;;;;1.50;91.00;;;;;;5104947;27;19907;-66
2023/03/08 07:10:51;;;;;;;;;;;1.50;91.10;;;;;;5098797;27;20449;-67
2023/03/08 07:13:17;;;;;;;;;;;1.50;91.00;;;;;;5102222;27;20323;-67
2023/03/08 07:15:43;;;;;;;;;;;1.50;91.00;;;;;;5106970;27;19908;-66
2023/03/08 07:18:08;;;;;;;;;;;1.60;91.10;;;;;;5107578;27;19995;-67
2023/03/08 07:20:34;;;;;;;;;;;1.60;91.30;;;;;;5100414;27;20357;-66
2023/03/08 07:23:00;;;;;;;;;;;1.70;91.00;;;;;;5101012;28;19938;-66
2023/03/08 07:25:26;;;;;;;;;;;1.80;90.90;;;;;;5104831;27;19907;-68
2023/03/08 07:27:52;;;;;;;;;;;1.90;90.80;;;;;;5101771;27;19922;-66
2023/03/08 07:30:17;;;;;;;;;;;2.00;90.70;;;;;;5097546;28;19907;-67
2023/03/08 07:32:43;;;;;;;;;;;2.00;90.70;;;;;;5093123;27;19923;-65
2023/03/08 07:35:13;;;;;;;;;;;2.00;90.60;;;;;;5098522;27;19914;-66
2023/03/08 07:37:39;;;;;;;;;;;2.00;90.70;;;;;;5112829;27;19950;-66
2023/03/08 07:40:05;;;;;;;;;;;2.00;90.70;;;;;;5098296;27;19998;-67
2023/03/08 07:42:31;;;;;;;;;;;2.10;90.70;;;;;;5099401;28;19961;-66
2023/03/08 07:44:57;;;;;;;;;;;2.10;90.70;;;;;;5104430;27;19915;-67
2023/03/08 07:47:22;;;;;;;;;;;2.20;90.80;;;;;;5106771;27;20392;-69
2023/03/08 07:49:48;;;;;;;;;;;2.20;90.70;;;;;;5103329;27;19911;-65
2023/03/08 07:52:13;;;;;;;;;;;2.20;90.70;;;;;;5106446;27;19927;-65
2023/03/08 07:54:39;;;;;;;;;;;2.20;90.60;;;;;;5103613;27;19916;-64
2023/03/08 07:57:06;;;;;;;;;;;2.20;90.60;;;;;;5102946;27;19912;-68
2023/03/08 07:59:31;;;;;;;;;;;2.20;90.70;;;;;;5098388;27;19960;-66
2023/03/08 08:01:57;;;;;;;;;;;2.20;91.00;;;;;;5103157;27;19990;-68
2023/03/08 08:04:22;;;;;;;;;;;2.30;90.70;;;;;;5104880;28;20327;-67
2023/03/08 08:06:48;;;;;;;;;;;2.30;90.70;;;;;;5104638;27;19908;-66
2023/03/08 08:09:14;;;;;;;;;;;2.30;90.70;;;;;;5104076;27;20589;-66
2023/03/08 08:11:40;;;;;;;;;;;2.30;90.80;;;;;;5108721;27;19946;-68
2023/03/08 08:14:06;;;;;;;;;;;2.30;90.80;;;;;;5107559;27;19911;-68
2023/03/08 08:16:31;;;;;;;;;;;2.30;90.80;;;;;;5110723;27;20406;-67
2023/03/08 08:18:57;;;;;;;;;;;2.30;90.80;;;;;;5102948;27;19915;-67
2023/03/08 08:21:22;;;;;;;;;;;2.40;90.80;;;;;;5102386;28;20011;-69
2023/03/08 08:23:48;;;;;;;;;;;2.40;90.80;;;;;;5105448;27;20389;-68
2023/03/08 08:26:15;;;;;;;;;;;2.50;90.70;;;;;;5105726;27;19908;-66
2023/03/08 08:28:41;;;;;;;;;;;2.40;90.80;;;;;;5102655;27;19970;-67
2023/03/08 08:31:08;;;;;;;;;;;2.40;90.90;;;;;;5104433;27;19912;-67
2023/03/08 08:33:36;;;;;;;;;;;2.40;90.90;;;;;;5100609;28;19911;-67
2023/03/08 08:36:03;;;;;;;;;;;2.50;91.00;;;;;;5102085;27;20002;-67
2023/03/08 08:38:28;;;;;;;;;;;2.50;91.00;;;;;;5097839;27;19959;-68
2023/03/08 08:40:54;;;;;;;;;;;2.50;91.00;;;;;;5098251;28;20351;-67
2023/03/08 08:43:19;;;;;;;;;;;2.70;91.00;;;;;;5095752;28;19919;-68
2023/03/08 08:45:45;;;;;;;;;;;2.60;90.90;;;;;;5095708;27;19911;-68
2023/03/08 08:48:11;;;;;;;;;;;2.70;90.90;;;;;;5104185;27;19916;-67
2023/03/08 08:50:38;;;;;;;;;;;2.80;90.90;;;;;;5097780;28;19953;-67
2023/03/08 08:53:04;;;;;;;;;;;2.80;90.80;;;;;;5096267;27;19916;-67
2023/03/08 08:55:29;;;;;;;;;;;2.70;90.80;;;;;;5102814;27;20336;-68
2023/03/08 08:57:55;;;;;;;;;;;2.70;90.90;;;;;;5106061;27;19964;-68
2023/03/08 09:00:20;;;;;;;;;;;2.80;90.90;;;;;;5101969;27;19976;-67
2023/03/08 09:02:46;;;;;;;;;;;2.80;90.90;;;;;;5100072;28;19947;-68
2023/03/08 09:05:11;;;;;;;;;;;2.80;90.80;;;;;;5115880;27;19914;-67
2023/03/08 09:07:37;;;;;;;;;;;2.80;90.80;;;;;;5106333;27;19914;-67
2023/03/08 09:10:02;;;;;;;;;;;2.80;90.80;;;;;;5101807;27;19908;-68
2023/03/08 09:12:28;;;;;;;;;;;2.80;90.80;;;;;;5104958;27;19908;-67
2023/03/08 09:14:53;;;;;;;;;;;2.90;90.80;;;;;;5103448;28;19970;-68
2023/03/08 09:17:19;;;;;;;;;;;3.00;90.80;;;;;;5100899;27;20398;-67
2023/03/08 09:19:44;;;;;;;;;;;3.00;90.60;;;;;;5100319;27;19954;-69
2023/03/08 09:22:10;;;;;;;;;;;3.00;90.50;;;;;;5106796;27;19918;-67
2023/03/08 09:24:35;;;;;;;;;;;3.00;90.50;;;;;;5109505;27;19916;-68
2023/03/08 09:27:03;;;;;;;;;;;3.00;90.40;;;;;;5102063;28;19908;-68
2023/03/08 09:29:29;;;;;;;;;;;2.90;90.40;;;;;;5107357;28;19908;-69
2023/03/08 09:31:54;;;;;;;;;;;3.00;90.50;;;;;;5103391;27;19908;-67
2023/03/08 09:34:19;;;;;;;;;;;3.10;90.50;;;;;;5111753;27;20006;-67
2023/03/08 09:36:45;;;;;;;;;;;3.10;90.40;;;;;;5107781;28;19923;-68
2023/03/08 09:39:12;;;;;;;;;;;3.10;90.30;;;;;;5099225;28;19908;-67
2023/03/08 09:41:47;;;;;;;;;;;3.10;90.30;;;;;;5102073;28;19914;-67
2023/03/08 09:44:16;;;;;;;;;;;3.10;90.60;;;;;;5101478;27;19908;-68
2023/03/08 09:46:45;;;;;;;;;;;3.10;90.30;;;;;;5108015;28;19915;-68
2023/03/08 09:49:29;;;;;;;;;;;3.10;90.20;;;;;;5112549;27;19966;-68
2023/03/08 09:52:09;;;;;;;;;;;3.10;90.20;;;;;;5101540;28;19969;-67
2023/03/08 09:54:37;;;;;;;;;;;3.20;90.20;;;;;;5097011;28;20273;-67
2023/03/08 09:57:05;;;;;;;;;;;3.20;90.10;;;;;;5100830;28;20181;-68
2023/03/08 09:59:39;;;;;;;;;;;3.30;90.10;;;;;;5094819;28;19907;-68
2023/03/08 10:02:23;;;;;;;;;;;3.30;90.10;;;;;;5095877;28;19908;-68
2023/03/08 10:05:08;;;;;;;;;;;3.40;90.00;;;;;;5099821;28;19983;-67
2023/03/08 10:07:34;;;;;;;;;;;3.40;89.80;;;;;;5093931;28;19908;-67
2023/03/08 10:10:18;;;;;;;;;;;3.40;89.90;;;;;;5099833;28;20350;-67
2023/03/08 10:12:51;;;;;;;;;;;3.50;90.20;;;;;;5091565;28;20283;-67
2023/03/08 10:15:19;;;;;;;;;;;3.40;89.50;;;;;;5091849;28;20582;-67
2023/03/08 10:18:20;;;;;;;;;;;3.30;89.50;;;;;;5106618;28;20273;-67
2023/03/08 10:20:46;;;;;;;;;;;3.40;89.90;;;;;;5059292;28;19920;-67
2023/03/08 10:23:17;;;;;;;;;;;3.40;89.80;;;;;;5095671;28;19982;-68
2023/03/08 10:25:43;;;;;;;;;;;3.40;89.90;;;;;;5101495;28;19914;-68
2023/03/08 10:28:11;;;;;;;;;;;3.30;89.90;;;;;;5105054;28;20010;-67
2023/03/08 10:30:39;;;;;;;;;;;3.30;90.00;;;;;;5107685;27;19908;-68
2023/03/08 10:33:08;;;;;;;;;;;3.40;90.10;;;;;;5105352;27;19915;-68
2023/03/08 10:35:52;;;;;;;;;;;3.40;90.00;;;;;;5103261;27;19915;-67
2023/03/08 10:38:17;;;;;;;;;;;3.40;90.00;;;;;;5118307;27;19965;-68
2023/03/08 10:40:43;;;;;;;;;;;3.40;90.00;;;;;;5104536;27;19912;-67
2023/03/08 10:43:15;;;;;;;;;;;3.40;90.10;;;;;;5118718;27;19914;-67
2023/03/08 10:45:41;;;;;;;;;;;3.50;90.10;;;;;;5103817;28;19907;-67
2023/03/08 10:48:18;;;;;;;;;;;3.60;90.00;;;;;;5114292;27;20388;-68
2023/03/08 10:50:43;;;;;;;;;;;3.70;90.00;;;;;;5112482;27;19912;-67
2023/03/08 10:53:13;;;;;;;;;;;3.90;89.80;;;;;;5107444;27;19920;-67
2023/03/08 10:55:46;;;;;;;;;;;3.90;89.50;;;;;;5108300;27;19908;-67
2023/03/08 10:58:24;;;;;;;;;;;3.80;89.40;;;;;;5109322;27;20255;-67
2023/03/08 11:00:53;;;;;;;;;;;3.80;89.00;;;;;;5102457;27;19908;-66
2023/03/08 11:03:19;;;;;;;;;;;3.70;89.00;;;;;;5098870;28;20259;-66
2023/03/08 11:06:03;;;;;;;;;;;3.80;89.50;;;;;;5111906;28;19942;-67
2023/03/08 11:08:52;;;;;;;;;;;3.80;89.40;;;;;;5107441;27;19947;-66
2023/03/08 11:11:17;;;;;;;;;;;3.80;89.70;;;;;;5094047;27;20281;-67
2023/03/08 11:13:45;;;;;;;;;;;3.90;89.60;;;;;;5113892;27;19941;-66
2023/03/08 11:16:30;;;;;;;;;;;3.80;88.90;;;;;;5104586;27;20527;-66
2023/03/08 11:19:14;;;;;;;;;;;3.80;89.10;;;;;;5109322;27;20290;-66
2023/03/08 11:21:59;;;;;;;;;;;3.90;89.10;;;;;;5107485;27;19911;-66
2023/03/08 11:24:30;;;;;;;;;;;4.00;88.70;;;;;;5127805;27;19934;-67
2023/03/08 11:27:14;;;;;;;;;;;4.00;87.60;;;;;;5120227;27;20362;-66
2023/03/08 11:29:48;;;;;;;;;;;4.00;87.50;;;;;;5112612;27;19907;-67
2023/03/08 11:32:14;;;;;;;;;;;4.10;88.00;;;;;;5109481;27;19912;-67
2023/03/08 11:34:45;;;;;;;;;;;4.10;87.20;;;;;;5123696;27;19911;-67
2023/03/08 11:37:17;;;;;;;;;;;4.20;87.30;;;;;;5113598;27;19907;-67
2023/03/08 11:39:49;;;;;;;;;;;4.20;86.40;;;;;;5122562;27;20325;-67
2023/03/08 11:42:24;;;;;;;;;;;4.00;85.90;;;;;;5116263;27;20385;-68
2023/03/08 11:45:08;;;;;;;;;;;4.00;85.60;;;;;;5114796;27;20439;-68
2023/03/08 11:47:50;;;;;;;;;;;4.00;86.30;;;;;;5118614;27;20319;-68
2023/03/08 11:50:21;;;;;;;;;;;4.00;85.20;;;;;;5107675;27;20006;-67
2023/03/08 11:52:46;;;;;;;;;;;4.00;85.80;;;;;;5120668;27;19926;-67
2023/03/08 11:55:32;;;;;;;;;;;4.10;86.20;;;;;;5124512;27;19911;-67
2023/03/08 11:58:03;;;;;;;;;;;4.20;86.00;;;;;;5115452;27;19911;-67
2023/03/08 12:00:36;;;;;;;;;;;4.20;85.10;;;;;;5110936;27;19948;-68
2023/03/08 12:03:08;;;;;;;;;;;4.20;85.00;;;;;;5114163;27;20444;-67
2023/03/08 12:05:37;;;;;;;;;;;4.10;84.90;;;;;;5122515;27;20278;-67
2023/03/08 12:08:03;;;;;;;;;;;4.10;85.00;;;;;;5104175;27;19974;-67
2023/03/08 12:10:35;;;;;;;;;;;4.00;84.90;;;;;;5101296;27;19947;-67
2023/03/08 12:13:10;;;;;;;;;;;4.10;85.40;;;;;;5109624;27;20385;-67
2023/03/08 12:15:38;;;;;;;;;;;4.10;85.40;;;;;;5114763;27;19908;-67
2023/03/08 12:18:12;;;;;;;;;;;4.00;85.00;;;;;;5098501;28;19908;-67
2023/03/08 12:20:39;;;;;;;;;;;4.00;84.70;;;;;;5105246;28;20305;-67
2023/03/08 12:23:10;;;;;;;;;;;4.00;85.00;;;;;;5112285;27;19919;-67
2023/03/08 12:25:40;;;;;;;;;;;4.00;84.80;;;;;;5110455;27;20052;-67
2023/03/08 12:28:05;;;;;;;;;;;4.00;84.70;;;;;;5113218;27;19904;-67
2023/03/08 12:30:31;;;;;;;;;;;4.10;85.10;;;;;;5104482;27;19908;-67
2023/03/08 12:32:58;;;;;;;;;;;4.10;84.80;;;;;;5112193;27;19919;-67
2023/03/08 12:35:26;;;;;;;;;;;4.10;85.30;;;;;;5112926;27;19907;-68
2023/03/08 12:38:10;;;;;;;;;;;4.10;84.60;;;;;;5117534;27;19910;-66
2023/03/08 12:40:54;;;;;;;;;;;4.20;84.80;;;;;;5102273;28;19908;-67
2023/03/08 12:43:19;;;;;;;;;;;4.20;84.80;;;;;;5111771;28;19919;-68
2023/03/08 12:46:05;;;;;;;;;;;4.20;84.60;;;;;;5111996;27;19908;-67
2023/03/08 12:48:31;;;;;;;;;;;4.40;84.90;;;;;;5101410;28;19918;-67
2023/03/08 12:50:56;;;;;;;;;;;4.40;84.30;;;;;;5108517;28;19911;-67
2023/03/08 12:53:21;;;;;;;;;;;4.40;84.40;;;;;;5113939;27;19911;-67
2023/03/08 12:55:57;;;;;;;;;;;4.40;84.00;;;;;;5109978;27;19907;-67
2023/03/08 12:58:23;;;;;;;;;;;4.40;83.00;;;;;;5099159;27;19987;-67
2023/03/08 13:00:56;;;;;;;;;;;4.30;83.20;;;;;;5100050;28;20006;-66
2023/03/08 13:03:21;;;;;;;;;;;4.20;82.70;;;;;;5113837;27;20020;-68
2023/03/08 13:05:49;;;;;;;;;;;4.10;83.60;;;;;;5111169;28;19940;-66
2023/03/08 13:08:17;;;;;;;;;;;4.10;83.60;;;;;;5104447;28;20527;-67
2023/03/08 13:10:48;;;;;;;;;;;4.20;83.70;;;;;;5114537;27;19915;-67
2023/03/08 13:13:24;;;;;;;;;;;4.20;83.50;;;;;;5110112;27;19919;-67
2023/03/08 13:15:49;;;;;;;;;;;4.20;83.60;;;;;;5102432;28;19908;-68
2023/03/08 13:18:17;;;;;;;;;;;4.20;82.90;;;;;;5099256;28;20355;-67
2023/03/08 13:20:48;;;;;;;;;;;4.20;83.30;;;;;;5098738;28;19980;-67
2023/03/08 13:23:14;;;;;;;;;;;4.20;82.70;;;;;;5108613;28;19966;-67
2023/03/08 13:25:45;;;;;;;;;;;4.10;82.50;;;;;;5097131;28;19955;-67
2023/03/08 13:28:10;;;;;;;;;;;4.10;82.40;;;;;;5108725;28;19911;-67
2023/03/08 13:30:37;;;;;;;;;;;4.10;82.50;;;;;;5110526;27;19907;-67
2023/03/08 13:33:23;;;;;;;;;;;4.10;82.90;;;;;;5108296;28;19914;-68
2023/03/08 13:35:55;;;;;;;;;;;4.20;83.10;;;;;;5106295;28;19914;-67
2023/03/08 13:38:22;;;;;;;;;;;4.20;82.30;;;;;;5105289;28;19915;-67
2023/03/08 13:40:51;;;;;;;;;;;4.20;82.30;;;;;;5104414;28;19908;-67
2023/03/08 13:43:17;;;;;;;;;;;4.20;82.40;;;;;;5106848;28;19915;-66
2023/03/08 13:45:46;;;;;;;;;;;4.20;82.30;;;;;;5104985;28;19912;-66
2023/03/08 13:48:13;;;;;;;;;;;4.20;82.30;;;;;;5105055;28;20377;-67
2023/03/08 13:50:41;;;;;;;;;;;4.20;82.60;;;;;;5105236;28;19908;-68
2023/03/08 13:53:13;;;;;;;;;;;4.20;82.00;;;;;;5104507;28;19908;-68
2023/03/08 13:55:42;;;;;;;;;;;4.20;82.00;;;;;;5109156;28;19923;-66
2023/03/08 13:58:14;;;;;;;;;;;4.20;82.30;;;;;;5104215;28;19950;-67
2023/03/08 14:00:39;;;;;;;;;;;4.30;82.30;;;;;;5110676;27;19908;-66
2023/03/08 14:03:08;;;;;;;;;;;4.30;82.20;;;;;;5107989;28;19922;-67
2023/03/08 14:05:39;;;;;;;;;;;4.40;82.10;;;;;;5105448;28;19907;-67
2023/03/08 14:08:06;;;;;;;;;;;4.40;82.20;;;;;;5114253;27;19973;-67
2023/03/08 14:10:35;;;;;;;;;;;4.40;82.30;;;;;;5111290;28;19908;-68
2023/03/08 14:13:01;;;;;;;;;;;4.50;82.30;;;;;;5116950;27;19957;-66
2023/03/08 14:15:37;;;;;;;;;;;4.60;82.40;;;;;;5108445;28;20320;-67
2023/03/08 14:18:03;;;;;;;;;;;4.70;82.30;;;;;;5106766;27;19966;-67
2023/03/08 14:20:29;;;;;;;;;;;4.80;82.10;;;;;;5102649;27;19912;-65
2023/03/08 14:22:54;;;;;;;;;;;4.70;81.90;;;;;;5101594;28;19908;-67
2023/03/08 14:25:30;;;;;;;;;;;4.70;81.80;;;;;;5105750;27;19938;-67
2023/03/08 14:27:56;;;;;;;;;;;4.70;81.80;;;;;;5107937;28;20358;-67
2023/03/08 14:30:23;;;;;;;;;;;4.80;81.70;;;;;;5104756;27;19908;-67
2023/03/08 14:32:58;;;;;;;;;;;4.70;80.80;;;;;;5106160;27;20366;-67
2023/03/08 14:35:50;;;;;;;;;;;4.60;81.10;;;;;;5105947;27;21346;-67